Navigator Grace — D5DP9 — position and weather

sailwx.info

Track history (hours):
 
Tides and Currents Weather Stations Pressure Air Temp Water Temp Dewpoint Dewpoint Depression Visibility Wind Speed Wind Dir Waves Ship Positions

Navigator Grace

Last reported at 2018-Jan-24 00:00 UTC. Time now 2018-Jan-24 00:03 UTC.
Position N 36°06' W 005°25'.

Length 153 m; draft 6 m.

Type: Tanker. MMSI: 636015943.

Date/timePositionNaut miles runAvg speedWind from/ knotsBaromVisibWave heightAir tempDewpointWater temp
2018-Jan-24 00:00N 36°06' W 005°25'1 1.2
2018-Jan-23 23:30N 36°06' W 005°24'3 0.3
2018-Jan-23 15:23N 36°05' W 005°21'512.7
2018-Jan-23 15:00N 36°06' W 005°15'6 6.7
2018-Jan-23 14:06N 36°07' W 005°08'3 1.0
2018-Jan-23 11:15N 36°04' W 005°08'1 2.3
2018-Jan-23 10:59N 36°05' W 005°09'1 2.4
2018-Jan-23 10:30N 36°05' W 005°10'2 2.8
2018-Jan-23 09:44N 36°06' W 005°08'1 2.5
2018-Jan-23 09:30N 36°06' W 005°08'1 2.3
2018-Jan-23 09:00N 36°07' W 005°10'1 0.9
2018-Jan-23 07:57N 36°07' W 005°09'0 0.5
2018-Jan-23 07:22N 36°07' W 005°09'6 7.4
2018-Jan-23 06:34N 36°01' W 005°11'214.4
2018-Jan-23 06:28N 36°01' W 005°13'816.7
2018-Jan-23 06:01N 35°59' W 005°22'  
Track history (hours):
 
Tides and Currents Weather Stations Pressure Air Temp Water Temp Dewpoint Dewpoint Depression Visibility Wind Speed Wind Dir Waves Ship Positions

Navigator Grace

Last reported at 2018-Jan-24 00:00 UTC. Time now 2018-Jan-24 00:03 UTC.
Position N 36°06' W 005°25'.

Length 153 m; draft 6 m.

Type: Tanker. MMSI: 636015943.

Date/timePositionNaut miles runAvg speedWind from/ knotsBaromVisibWave heightAir tempDewpointWater temp
2018-Jan-24 00:00N 36°06' W 005°25'1 1.2
2018-Jan-23 23:30N 36°06' W 005°24'3 0.3
2018-Jan-23 15:23N 36°05' W 005°21'512.7
2018-Jan-23 15:00N 36°06' W 005°15'6 6.7
2018-Jan-23 14:06N 36°07' W 005°08'3 1.0
2018-Jan-23 11:15N 36°04' W 005°08'1 2.3
2018-Jan-23 10:59N 36°05' W 005°09'1 2.4
2018-Jan-23 10:30N 36°05' W 005°10'2 2.8
2018-Jan-23 09:44N 36°06' W 005°08'1 2.5
2018-Jan-23 09:30N 36°06' W 005°08'1 2.3
2018-Jan-23 09:00N 36°07' W 005°10'1 0.9
2018-Jan-23 07:57N 36°07' W 005°09'0 0.5
2018-Jan-23 07:22N 36°07' W 005°09'6 7.4
2018-Jan-23 06:34N 36°01' W 005°11'214.4
2018-Jan-23 06:28N 36°01' W 005°13'816.7
2018-Jan-23 06:01N 35°59' W 005°22'  

Dump ship's entire track history